createdAt,value
2022-08-26T00:02:02.057Z,10.50
2022-08-26T00:04:32.498Z,7.00
2022-08-26T00:07:02.668Z,7.00
2022-08-26T00:09:38.912Z,7.50
2022-08-26T00:12:17.505Z,8.70
2022-08-26T00:19:49.102Z,15.90
2022-08-26T00:22:31.355Z,17.60
2022-08-26T00:25:10.559Z,16.50
2022-08-26T00:27:40.108Z,19.10
2022-08-26T00:30:13.637Z,13.70
2022-08-26T00:32:50.352Z,12.90
2022-08-26T00:35:26.085Z,11.10
2022-08-26T00:38:11.117Z,11.60
2022-08-26T00:41:01.573Z,11.30
2022-08-26T00:43:46.160Z,10.50
2022-08-26T00:46:48.732Z,11.90
2022-08-26T00:49:47.954Z,10.40
2022-08-26T00:52:20.138Z,11.80
2022-08-26T00:55:20.517Z,11.60
2022-08-26T00:58:11.502Z,12.30
2022-08-26T01:00:45.243Z,13.10
2022-08-26T01:03:20.269Z,14.80
2022-08-26T01:05:51.192Z,14.70
2022-08-26T01:08:23.438Z,13.80
2022-08-26T01:10:56.418Z,14.00
2022-08-26T01:13:26.547Z,13.10
2022-08-26T01:15:59.383Z,12.40
2022-08-26T01:18:29.430Z,13.10
2022-08-26T01:21:40.545Z,11.90
2022-08-26T01:24:10.712Z,12.60
2022-08-26T01:26:43.349Z,11.50
2022-08-26T01:29:16.366Z,11.00
2022-08-26T01:31:50.283Z,11.90
2022-08-26T01:34:31.191Z,10.60
2022-08-26T01:37:08.007Z,10.50
2022-08-26T01:39:43.079Z,10.20
2022-08-26T01:42:15.646Z,10.40
2022-08-26T01:44:52.583Z,8.70
2022-08-26T01:47:24.435Z,9.90
2022-08-26T01:49:56.345Z,10.80
2022-08-26T01:52:31.618Z,10.50
2022-08-26T01:55:00.754Z,10.10
2022-08-26T01:57:29.633Z,9.70
2022-08-26T02:00:02.172Z,9.50
2022-08-26T02:02:45.214Z,9.00
2022-08-26T02:05:18.608Z,9.80
2022-08-26T02:07:51.290Z,9.20
2022-08-26T02:10:21.204Z,9.40
2022-08-26T02:12:52.103Z,8.90
2022-08-26T02:15:25.105Z,8.90
2022-08-26T02:18:00.899Z,8.70
2022-08-26T02:20:30.049Z,8.20
2022-08-26T02:23:00.201Z,7.00
2022-08-26T02:28:29.278Z,7.10
2022-08-26T02:31:06.533Z,6.70
2022-08-26T02:33:44.103Z,6.80
2022-08-26T02:36:21.498Z,7.50
2022-08-26T02:38:56.035Z,7.20
2022-08-26T02:41:31.766Z,6.70
2022-08-26T02:44:16.257Z,7.20
2022-08-26T02:46:47.808Z,6.80
2022-08-26T02:49:19.538Z,7.30
2022-08-26T02:51:54.386Z,6.90
2022-08-26T02:54:28.423Z,6.90
2022-08-26T02:57:03.462Z,7.20
2022-08-26T02:59:31.931Z,6.30
2022-08-26T03:02:05.864Z,5.90
2022-08-26T03:04:41.095Z,5.10
2022-08-26T03:07:27.695Z,5.70
2022-08-26T03:09:59.721Z,4.90
2022-08-26T03:12:29.810Z,4.70
2022-08-26T03:15:17.562Z,5.70
2022-08-26T03:17:59.102Z,5.20
2022-08-26T03:20:31.771Z,4.80
2022-08-26T03:23:00.495Z,4.50
2022-08-26T03:25:40.851Z,4.20
2022-08-26T03:28:10.487Z,4.20
2022-08-26T03:30:45.110Z,4.20
2022-08-26T03:33:19.587Z,9.70
2022-08-26T03:35:59.956Z,12.00
2022-08-26T03:38:43.549Z,9.10
2022-08-26T03:41:27.147Z,8.50
2022-08-26T03:44:06.622Z,7.00
2022-08-26T03:46:48.391Z,6.40
2022-08-26T03:49:35.633Z,6.70
2022-08-26T03:52:07.933Z,6.80
2022-08-26T03:54:49.468Z,11.00
2022-08-26T03:57:21.852Z,7.70
2022-08-26T03:59:53.712Z,8.00
2022-08-26T04:02:22.321Z,8.00
2022-08-26T04:04:50.841Z,7.90
2022-08-26T04:07:22.899Z,7.20
2022-08-26T04:09:51.131Z,7.50
2022-08-26T04:17:26.829Z,7.20
2022-08-26T04:19:59.655Z,6.90
2022-08-26T04:22:29.287Z,7.40
2022-08-26T04:24:59.999Z,7.50
2022-08-26T04:27:31.722Z,6.50
2022-08-26T04:30:05.441Z,6.50
2022-08-26T04:32:33.602Z,7.90
2022-08-26T04:35:02.484Z,11.30
2022-08-26T04:37:33.669Z,10.30
2022-08-26T04:40:04.321Z,12.70
2022-08-26T04:42:34.237Z,12.20
2022-08-26T04:45:05.863Z,12.50
2022-08-26T04:47:39.378Z,11.00
2022-08-26T04:50:08.916Z,10.90
2022-08-26T04:52:41.454Z,10.20
2022-08-26T04:55:11.641Z,10.60
2022-08-26T05:00:12.068Z,10.30
2022-08-26T05:02:41.192Z,10.40
2022-08-26T05:05:12.367Z,10.60
2022-08-26T05:07:41.113Z,10.20
2022-08-26T05:10:11.921Z,9.90
2022-08-26T05:12:40.463Z,10.40
2022-08-26T05:17:42.447Z,11.00
2022-08-26T05:20:13.663Z,10.80
2022-08-26T05:22:42.904Z,8.90
2022-08-26T05:25:12.364Z,9.70
2022-08-26T05:27:40.915Z,9.10
2022-08-26T05:30:10.856Z,8.50
2022-08-26T05:32:40.523Z,7.50
2022-08-26T05:35:11.306Z,8.40
2022-08-26T05:37:39.350Z,9.70
2022-08-26T05:40:09.228Z,8.70
2022-08-26T05:42:38.906Z,9.30
2022-08-26T05:45:09.227Z,8.80
2022-08-26T05:47:37.665Z,8.70
2022-08-26T05:50:09.394Z,10.50
2022-08-26T05:52:41.227Z,11.00
2022-08-26T05:55:11.599Z,11.20
2022-08-26T05:57:42.874Z,11.10
2022-08-26T06:00:13.489Z,12.10
2022-08-26T06:02:42.142Z,12.10
2022-08-26T06:05:10.009Z,13.40
2022-08-26T06:07:57.875Z,12.30
2022-08-26T06:10:32.496Z,12.40
2022-08-26T06:13:09.215Z,11.60
2022-08-26T06:15:48.488Z,12.80
2022-08-26T06:18:32.851Z,12.30
2022-08-26T06:21:12.314Z,12.40
2022-08-26T06:23:59.696Z,13.80
2022-08-26T06:26:31.484Z,14.50
2022-08-26T06:29:01.708Z,14.40
2022-08-26T06:31:37.835Z,13.80
2022-08-26T06:34:11.116Z,13.50
2022-08-26T06:36:42.180Z,13.00
2022-08-26T06:39:15.223Z,14.60
2022-08-26T06:41:45.402Z,14.70
2022-08-26T06:44:19.225Z,15.10
2022-08-26T06:46:50.423Z,14.20
2022-08-26T06:49:26.968Z,14.50
2022-08-26T06:52:00.132Z,14.80
2022-08-26T06:54:38.870Z,15.60
2022-08-26T06:57:06.897Z,14.90
2022-08-26T06:59:35.173Z,15.70
2022-08-26T07:02:06.453Z,16.20
2022-08-26T07:04:36.181Z,15.90
2022-08-26T07:07:09.692Z,16.40
2022-08-26T07:09:38.984Z,15.50
2022-08-26T07:12:10.214Z,15.00
2022-08-26T07:14:39.673Z,15.40
2022-08-26T07:17:11.050Z,15.60
2022-08-26T07:19:42.713Z,14.90
2022-08-26T07:22:13.375Z,15.90
2022-08-26T07:24:42.637Z,14.20
2022-08-26T07:27:15.129Z,15.20
2022-08-26T07:29:44.105Z,14.30
2022-08-26T07:32:15.258Z,13.70
2022-08-26T07:34:44.049Z,13.30
2022-08-26T07:37:12.910Z,14.00
2022-08-26T07:42:22.825Z,12.40
2022-08-26T07:44:52.422Z,12.40
2022-08-26T07:47:25.627Z,11.60
2022-08-26T07:49:57.710Z,11.00
2022-08-26T07:52:28.313Z,11.60
2022-08-26T07:54:58.259Z,10.20
2022-08-26T07:57:28.435Z,11.20
2022-08-26T07:59:57.492Z,10.90
2022-08-26T08:02:30.473Z,10.00
2022-08-26T08:04:58.638Z,10.90
2022-08-26T08:07:44.207Z,11.90
2022-08-26T08:10:18.697Z,9.40
2022-08-26T08:12:50.894Z,8.60
2022-08-26T08:15:22.204Z,9.00
2022-08-26T08:17:51.674Z,10.30
2022-08-26T08:20:20.653Z,9.10
2022-08-26T08:22:51.809Z,9.40
2022-08-26T08:25:22.607Z,8.90
2022-08-26T08:27:52.683Z,8.00
2022-08-26T08:30:27.683Z,8.20
2022-08-26T08:32:56.775Z,8.00
2022-08-26T08:35:26.681Z,7.90
2022-08-26T08:37:55.549Z,8.30
2022-08-26T08:40:28.034Z,7.70
2022-08-26T08:43:07.200Z,8.50
2022-08-26T08:45:37.985Z,8.20
2022-08-26T08:48:29.661Z,8.40
2022-08-26T08:51:14.155Z,7.90
2022-08-26T08:53:45.922Z,7.70
2022-08-26T08:56:24.354Z,7.20
2022-08-26T08:59:04.917Z,7.30
2022-08-26T09:01:37.696Z,7.70
2022-08-26T09:04:51.572Z,7.80
2022-08-26T09:07:27.871Z,6.90
2022-08-26T09:10:03.659Z,6.90
2022-08-26T09:12:35.318Z,6.40
2022-08-26T09:15:16.593Z,6.60
2022-08-26T09:18:03.013Z,7.30
2022-08-26T09:20:42.023Z,6.50
2022-08-26T09:23:18.326Z,5.60
2022-08-26T09:25:50.543Z,5.10
2022-08-26T09:28:21.865Z,5.60
2022-08-26T09:31:35.474Z,6.00
2022-08-26T09:34:17.269Z,5.60
2022-08-26T09:36:49.766Z,5.40
2022-08-26T09:39:34.224Z,5.00
2022-08-26T09:42:14.312Z,6.10
2022-08-26T09:45:10.541Z,5.00
2022-08-26T09:47:54.795Z,4.90
2022-08-26T09:50:39.162Z,5.20
2022-08-26T09:53:12.670Z,5.20
2022-08-26T09:55:43.682Z,5.10
2022-08-26T09:58:35.525Z,4.80
2022-08-26T10:01:08.270Z,5.20
2022-08-26T10:03:39.279Z,5.40
2022-08-26T10:06:23.436Z,4.70
2022-08-26T10:08:57.587Z,5.30
2022-08-26T10:11:50.698Z,5.60
2022-08-26T10:14:25.816Z,4.60
2022-08-26T10:17:35.447Z,5.20
2022-08-26T10:20:22.696Z,5.30
2022-08-26T10:23:17.464Z,5.10
2022-08-26T10:26:16.723Z,5.10
2022-08-26T10:29:14.333Z,5.10
2022-08-26T10:32:03.399Z,4.00
2022-08-26T10:34:35.460Z,4.50
2022-08-26T10:37:15.726Z,3.90
2022-08-26T10:40:07.865Z,3.70
2022-08-26T10:42:45.455Z,4.10
2022-08-26T10:47:46.456Z,3.90
2022-08-26T10:50:18.167Z,4.20
2022-08-26T10:53:14.188Z,4.10
2022-08-26T10:56:02.410Z,4.40
2022-08-26T10:58:38.227Z,4.40
2022-08-26T11:01:46.987Z,4.80
2022-08-26T11:04:51.261Z,4.20
2022-08-26T11:07:55.227Z,4.60
2022-08-26T11:10:27.611Z,4.10
2022-08-26T11:13:12.280Z,5.00
2022-08-26T11:15:45.995Z,4.80
2022-08-26T11:18:45.180Z,4.50
2022-08-26T11:22:15.346Z,4.60
2022-08-26T11:25:30.887Z,4.60
2022-08-26T11:28:54.922Z,4.40
2022-08-26T11:31:58.241Z,4.00
2022-08-26T11:35:14.041Z,3.80
2022-08-26T11:41:32.397Z,4.10
2022-08-26T11:44:09.376Z,4.60
2022-08-26T11:46:38.353Z,4.60
2022-08-26T11:49:15.162Z,4.50
2022-08-26T11:52:15.392Z,4.10
2022-08-26T11:55:09.782Z,4.10
2022-08-26T11:57:53.769Z,4.20
2022-08-26T12:00:36.283Z,3.90
2022-08-26T12:03:17.183Z,4.00
2022-08-26T12:06:45.856Z,4.50
2022-08-26T12:09:51.970Z,4.10
2022-08-26T12:12:42.919Z,3.90
2022-08-26T12:15:30.652Z,3.80
2022-08-26T12:20:54.341Z,4.10
2022-08-26T12:23:36.461Z,3.80
2022-08-26T12:26:36.573Z,3.60
2022-08-26T12:29:41.330Z,3.80
2022-08-26T12:32:17.660Z,3.80
2022-08-26T12:34:51.008Z,3.50
2022-08-26T12:37:32.384Z,4.00
2022-08-26T12:40:36.190Z,3.40
2022-08-26T12:43:11.071Z,3.80
2022-08-26T12:45:55.174Z,3.40
2022-08-26T12:48:36.281Z,3.20
2022-08-26T12:51:07.791Z,3.70
2022-08-26T12:53:48.870Z,2.80
2022-08-26T12:56:39.962Z,3.40
2022-08-26T12:59:31.929Z,3.50
2022-08-26T13:02:00.674Z,3.50
2022-08-26T13:04:39.893Z,3.90
2022-08-26T13:07:25.277Z,3.20
2022-08-26T13:10:13.245Z,3.80
2022-08-26T13:12:42.992Z,3.10
2022-08-26T13:15:55.040Z,3.60
2022-08-26T13:18:26.631Z,3.40
2022-08-26T13:20:56.656Z,3.30
2022-08-26T13:23:40.625Z,3.50
2022-08-26T13:26:32.868Z,3.20
2022-08-26T13:29:14.954Z,2.80
2022-08-26T13:31:46.363Z,3.20
2022-08-26T13:34:27.326Z,3.30
2022-08-26T13:36:56.531Z,4.10
2022-08-26T13:39:26.348Z,3.10
2022-08-26T13:41:58.639Z,3.90
2022-08-26T13:44:36.433Z,2.80
2022-08-26T13:47:14.983Z,2.80
2022-08-26T13:49:49.673Z,3.30
2022-08-26T13:52:17.907Z,3.00
2022-08-26T13:55:12.037Z,3.00
2022-08-26T13:57:40.152Z,2.80
2022-08-26T14:00:14.604Z,3.50
2022-08-26T14:02:59.302Z,2.80
2022-08-26T14:05:56.739Z,3.10
2022-08-26T14:08:24.913Z,2.70
2022-08-26T14:10:56.893Z,3.60
2022-08-26T14:13:26.193Z,3.00
2022-08-26T14:15:59.740Z,2.80
2022-08-26T14:18:53.667Z,2.90
2022-08-26T14:25:42.880Z,2.80
2022-08-26T14:28:29.562Z,3.10
2022-08-26T14:31:27.314Z,2.60
2022-08-26T14:34:15.572Z,2.70
2022-08-26T14:37:15.532Z,2.60
2022-08-26T14:43:47.346Z,2.90
2022-08-26T14:47:20.311Z,2.50
2022-08-26T14:54:03.370Z,3.00
2022-08-26T14:57:05.175Z,2.80
2022-08-26T14:59:41.188Z,2.50
2022-08-26T15:02:32.668Z,2.80
2022-08-26T15:05:12.063Z,2.50
2022-08-26T15:07:40.105Z,2.30
2022-08-26T15:10:33.355Z,2.50
2022-08-26T15:13:01.703Z,2.30
2022-08-26T15:15:31.455Z,3.10
2022-08-26T15:18:34.090Z,2.30
2022-08-26T15:21:13.068Z,2.20
2022-08-26T15:24:53.707Z,2.00
2022-08-26T15:28:04.855Z,3.00
2022-08-26T15:30:33.963Z,2.40
2022-08-26T15:33:02.127Z,2.30
2022-08-26T15:35:29.997Z,2.70
2022-08-26T15:38:01.315Z,2.40
2022-08-26T15:40:29.678Z,2.30
2022-08-26T15:43:11.414Z,2.40
2022-08-26T15:45:45.646Z,2.50
2022-08-26T15:48:13.610Z,2.20
2022-08-26T15:50:54.666Z,2.30
2022-08-26T15:53:24.403Z,2.40
2022-08-26T15:55:55.388Z,2.30
2022-08-26T15:58:25.871Z,2.40
2022-08-26T16:00:56.276Z,2.50
2022-08-26T16:03:24.322Z,2.60
2022-08-26T16:05:52.212Z,2.50
2022-08-26T16:08:22.842Z,2.80
2022-08-26T16:10:51.532Z,2.50
2022-08-26T16:13:20.380Z,2.30
2022-08-26T16:15:48.945Z,2.60
2022-08-26T16:18:18.200Z,2.30
2022-08-26T16:20:55.293Z,2.70
2022-08-26T16:23:43.267Z,2.50
2022-08-26T16:26:19.976Z,2.40
2022-08-26T16:33:04.997Z,2.30
2022-08-26T16:35:48.335Z,2.70
2022-08-26T16:38:16.610Z,2.60
2022-08-26T16:40:44.783Z,2.50
2022-08-26T16:43:15.387Z,2.70
2022-08-26T16:45:43.692Z,2.80
2022-08-26T16:48:12.070Z,2.40
2022-08-26T16:50:43.262Z,2.20
2022-08-26T16:55:48.740Z,2.70
2022-08-26T16:58:18.527Z,2.70
2022-08-26T17:00:46.903Z,2.60
2022-08-26T17:03:22.360Z,2.20
2022-08-26T17:06:35.556Z,2.90
2022-08-26T17:12:25.650Z,2.30
2022-08-26T17:15:43.623Z,2.50
2022-08-26T17:18:37.978Z,2.80
2022-08-26T17:21:23.483Z,2.20
2022-08-26T17:23:56.537Z,2.50
2022-08-26T17:26:55.592Z,2.50
2022-08-26T17:29:56.339Z,2.50
2022-08-26T17:33:18.682Z,2.90
2022-08-26T17:36:41.877Z,2.50
2022-08-26T17:39:46.532Z,2.90
2022-08-26T17:42:21.929Z,2.90
2022-08-26T17:49:22.925Z,3.00
2022-08-26T17:52:22.367Z,2.40
2022-08-26T17:55:20.817Z,2.80
2022-08-26T17:58:23.791Z,2.70
2022-08-26T18:00:56.763Z,3.10
2022-08-26T18:03:25.935Z,3.20
2022-08-26T18:06:24.195Z,3.20
2022-08-26T18:09:17.112Z,3.40
2022-08-26T18:11:54.996Z,2.60
2022-08-26T18:14:23.012Z,2.70
2022-08-26T18:17:05.333Z,2.80
2022-08-26T18:20:03.087Z,3.00
2022-08-26T18:23:03.365Z,2.50
2022-08-26T18:28:41.646Z,3.00
2022-08-26T18:31:13.497Z,2.60
2022-08-26T18:33:43.694Z,3.00
2022-08-26T18:36:26.064Z,3.20
2022-08-26T18:39:04.745Z,3.30
2022-08-26T18:42:03.402Z,3.20
2022-08-26T18:44:44.425Z,3.20
2022-08-26T18:47:45.294Z,3.10
2022-08-26T18:50:43.818Z,3.20
2022-08-26T18:53:23.997Z,3.10
2022-08-26T18:56:03.986Z,2.90
2022-08-26T19:01:52.701Z,3.20
2022-08-26T19:04:26.396Z,3.30
2022-08-26T19:07:02.795Z,3.40
2022-08-26T19:09:43.753Z,3.00
2022-08-26T19:12:44.417Z,3.00
2022-08-26T19:15:22.521Z,3.30
2022-08-26T19:18:45.567Z,3.10
2022-08-26T19:21:28.012Z,3.40
2022-08-26T19:24:06.630Z,3.60
2022-08-26T19:27:03.330Z,3.50
2022-08-26T19:29:53.814Z,3.30
2022-08-26T19:32:31.886Z,3.70
2022-08-26T19:35:03.867Z,3.70
2022-08-26T19:37:35.648Z,3.50
2022-08-26T19:40:11.838Z,3.80
2022-08-26T19:42:45.088Z,3.40
2022-08-26T19:45:24.352Z,3.60
2022-08-26T19:48:23.946Z,3.30
2022-08-26T19:51:27.363Z,3.70
2022-08-26T19:54:25.588Z,3.50
2022-08-26T19:57:26.482Z,3.80
2022-08-26T20:03:08.835Z,3.50
2022-08-26T20:06:42.878Z,3.80
2022-08-26T20:10:07.031Z,4.10
2022-08-26T20:13:10.621Z,3.60
2022-08-26T20:16:06.270Z,3.70
2022-08-26T20:18:56.133Z,3.90
2022-08-26T20:21:30.175Z,3.60
2022-08-26T20:24:06.177Z,4.00
2022-08-26T20:30:28.520Z,3.50
2022-08-26T20:33:27.108Z,3.60
2022-08-26T20:36:10.437Z,3.60
2022-08-26T20:39:07.792Z,4.10
2022-08-26T20:41:45.684Z,3.60
2022-08-26T20:44:27.056Z,4.40
2022-08-26T20:46:56.905Z,4.20
2022-08-26T20:49:28.341Z,3.80
2022-08-26T20:51:56.653Z,4.30
2022-08-26T20:54:28.517Z,4.30
2022-08-26T20:56:58.946Z,4.00
2022-08-26T20:59:27.776Z,5.20
2022-08-26T21:04:27.594Z,5.70
2022-08-26T21:06:56.794Z,5.30
2022-08-26T21:09:27.629Z,4.20
2022-08-26T21:11:59.616Z,4.60
2022-08-26T21:14:29.090Z,4.60
2022-08-26T21:17:00.037Z,4.60
2022-08-26T21:19:28.327Z,5.10
2022-08-26T21:21:58.671Z,5.10
2022-08-26T21:24:27.965Z,5.50
2022-08-26T21:29:27.633Z,6.50
2022-08-26T21:31:56.437Z,5.50
2022-08-26T21:34:25.340Z,5.40
2022-08-26T21:39:22.675Z,4.90
2022-08-26T21:41:59.065Z,4.90
2022-08-26T21:44:27.729Z,4.80
2022-08-26T21:46:58.488Z,4.70
2022-08-26T21:49:27.588Z,4.80
2022-08-26T21:51:56.876Z,4.90
2022-08-26T21:54:24.854Z,5.50
2022-08-26T21:56:54.784Z,5.40
2022-08-26T21:59:23.180Z,4.80
2022-08-26T22:01:57.090Z,5.40
2022-08-26T22:04:25.840Z,5.20
2022-08-26T22:06:59.832Z,5.20
2022-08-26T22:09:31.203Z,5.30
2022-08-26T22:12:02.552Z,5.60
2022-08-26T22:14:31.650Z,5.10
2022-08-26T22:17:00.102Z,5.30
2022-08-26T22:19:45.750Z,5.70
2022-08-26T22:22:36.984Z,5.80
2022-08-26T22:25:20.130Z,6.80
2022-08-26T22:27:51.871Z,5.90
2022-08-26T22:30:22.646Z,6.20
2022-08-26T22:32:51.182Z,6.00
2022-08-26T22:35:28.965Z,5.70
2022-08-26T22:38:00.046Z,5.90
2022-08-26T22:40:28.895Z,5.30
2022-08-26T22:45:32.513Z,5.60
2022-08-26T22:48:04.802Z,5.40
2022-08-26T22:50:34.015Z,6.10
2022-08-26T22:53:03.266Z,5.70
2022-08-26T22:55:37.596Z,5.80
2022-08-26T22:58:06.566Z,6.90
2022-08-26T23:03:12.885Z,6.20
2022-08-26T23:05:45.266Z,6.90
2022-08-26T23:08:15.555Z,6.40
2022-08-26T23:10:46.890Z,7.10
2022-08-26T23:13:18.722Z,7.60
2022-08-26T23:15:47.451Z,7.10
2022-08-26T23:18:19.408Z,6.80
2022-08-26T23:20:49.156Z,7.00
2022-08-26T23:23:24.532Z,6.90
2022-08-26T23:25:54.808Z,7.40
2022-08-26T23:28:23.922Z,6.60
2022-08-26T23:30:58.298Z,7.10
2022-08-26T23:33:46.789Z,6.60
2022-08-26T23:36:17.859Z,6.20
2022-08-26T23:38:52.741Z,5.80
2022-08-26T23:41:26.162Z,6.00
2022-08-26T23:44:03.587Z,5.80
2022-08-26T23:46:39.643Z,6.40
2022-08-26T23:49:10.926Z,7.00
2022-08-26T23:51:58.530Z,7.30
2022-08-26T23:54:34.203Z,8.20
2022-08-26T23:57:13.125Z,7.60
2022-08-26T23:59:42.572Z,7.80
